Subscribe to our newsletter to receive the latest product updates and special offers

Filter
Ticker Owner Relationship Date Transaction Cost #Shares Value ($) #Shares Total SEC Form 4
STCNSTEEL PARTNERS HOLDINGS L.P.DirectorApr 18Buy9.83701,2466,893,248813,097Apr 22 08:30 PM
SPLPSTEEL PARTNERS HOLDINGS L.P.DirectorApr 18Buy9.83701,2466,893,248813,097Apr 22 08:30 PM
MCFTColiseum Capital Management, L10% OwnerApr 22Buy21.3426,039555,6722,357,406Apr 22 07:59 PM
MCFTColiseum Capital Management, L10% OwnerApr 18Buy20.81107,0832,228,3972,331,367Apr 22 07:59 PM
BRNSHERWOOD NED L10% OwnerApr 22Buy2.892,7007,8032,669,977Apr 22 05:05 PM
BRNSHERWOOD NED L10% OwnerApr 19Buy2.805,01114,0312,667,277Apr 22 05:05 PM
BRNSHERWOOD NED L10% OwnerApr 18Buy2.8044,439124,4292,662,266Apr 22 05:05 PM
LINDSCHULTZ ALEX PDirectorApr 19Buy7.4733,016246,663126,400Apr 22 04:57 PM
CTRIIzenstark Gregory A.Chief Financial OfficerApr 22Buy21.005,250110,2505,250Apr 22 04:55 PM
CTRIDill JulieDirectorApr 22Buy21.005,000105,0005,000Apr 22 04:53 PM
CTRIKrummel Christopher ADirectorApr 22Buy21.002,50052,5002,500Apr 22 04:52 PM
CTRIPatton Charles R.DirectorApr 22Buy21.0011,000231,00011,000Apr 22 04:52 PM
CTRIWilcock Jason S.See RemarksApr 22Buy21.005,000105,0005,000Apr 22 04:50 PM
CTRIFehrman WilliamChief Executive OfficerApr 22Buy21.0025,000525,00025,000Apr 22 04:50 PM
CTRIHaller Karen SDirectorApr 22Buy21.0012,000252,00012,000Apr 22 04:49 PM
CTRIMARIUCCI ANNE LDirectorApr 22Buy21.0071,4001,499,40071,400Apr 22 04:48 PM
TTSHFund 1 Investments, LLC10% OwnerApr 22Buy6.3498,438623,6146,048,446Apr 22 04:43 PM
TTSHFund 1 Investments, LLC10% OwnerApr 19Buy6.2624,200151,4445,950,008Apr 22 04:43 PM
TTSHFund 1 Investments, LLC10% OwnerApr 18Buy6.524,50029,3215,925,808Apr 22 04:43 PM
VCNXFRIEDBERG ALBERTDirectorApr 19Buy4.732821,334560,597Apr 22 04:33 PM
SNDAClark ReanaeSee RemarksApr 18Buy30.113,347100,77834,431Apr 22 04:21 PM
CNXCCaldwell Christopher APresident and CEOApr 19Buy54.5990049,131239,128Apr 22 04:21 PM
BRTGOULD JEFFREYPRESIDENT AND CEOApr 19Buy16.895,50092,8863,726,331Apr 22 04:20 PM
BRTGOULD JEFFREYPRESIDENT AND CEOApr 18Buy16.6312,850213,6703,720,831Apr 22 04:20 PM
BRTGOULD INVESTORS L P10% OwnerApr 19Buy16.895,50092,8863,726,331Apr 22 04:20 PM
BRTGOULD INVESTORS L P10% OwnerApr 18Buy16.9512,850217,8553,720,831Apr 22 04:20 PM
BRTGOULD MATTHEW JSENIOR VICE PRESIDENTApr 19Buy16.875,50092,7933,726,331Apr 22 04:20 PM
BRTGOULD MATTHEW JSENIOR VICE PRESIDENTApr 18Buy16.6312,850213,6703,720,831Apr 22 04:20 PM
BEEPChavez Manuel IIICEOApr 19Buy3.3955,116186,843106,240Apr 22 04:15 PM
IBTAClark Jermoluk Founders Fund I10% OwnerApr 22Buy88.00568,18149,999,928568,181Apr 22 04:06 PM
GALTFREEMAN KEVIN DDirectorApr 22Buy2.982,5007,45025,969Apr 22 04:04 PM
EYPTCormorant Asset Management, LP10% OwnerApr 18Buy18.03581,76510,489,4467,475,000Apr 22 04:00 PM
HQLSaba Capital Management, L.P.10% OwnerApr 19Buy12.8442,459545,1742,736,970Apr 22 03:08 PM
HQLSaba Capital Management, L.P.10% OwnerApr 18Buy12.8081,7381,046,2462,694,511Apr 22 03:08 PM
CETO'Neill Andrew JVice PresidentApr 19Buy40.1380032,10483,639Apr 22 03:04 PM
YORWRasmussen Steven RDirectorApr 22Buy33.99291,0003,894Apr 22 02:38 PM
VUZITravers Paul JPresident and CEOApr 22Buy1.2514,50018,1632,859,670Apr 22 12:40 PM
RCGSTAHL MURRAYPresident and CEOApr 19Buy1.575586247,426Apr 22 12:05 PM
RCGSTAHL MURRAYPresident and CEOApr 19Buy1.57235,007Apr 22 12:05 PM
TPLHORIZON KINETICS ASSET MANAGEM10% OwnerApr 19Buy582.6031,7481,084,944Apr 22 11:25 AM
BANFSCHMIDT DARRYLExecutive Vice PresidentApr 22Buy89.71242,1535,122Apr 22 11:11 AM
BANFSCHMIDT DARRYLExecutive Vice PresidentApr 22Buy89.7123220,81248,939Apr 22 11:11 AM
UNOVSaumat Giorgio R.CEOApr 20Buy0.0740,0002,798119,831,407Apr 22 07:19 AM
RXOMFN Partners, LP10% OwnerApr 19Buy19.46200,0003,892,00016,875,369Apr 19 06:56 PM
RXOMFN Partners, LP10% OwnerApr 18Buy19.52870,00016,982,40016,675,369Apr 19 06:56 PM
RXOMFN Partners, LP10% OwnerApr 17Buy19.53175,6903,431,22615,805,369Apr 19 06:56 PM
HROWOpaleye Management Inc.10% OwnerApr 19Buy10.5629,400310,3903,775,000Apr 19 06:24 PM
RKTRizik MatthewDirectorApr 19Buy11.533804,381697,133Apr 19 06:01 PM
BCDAAltman PeterPresident and CEOApr 19Buy0.372,7501,013558,697Apr 19 05:38 PM
BEEPChavez Manuel IIICEOApr 18Buy3.4133,043112,67751,124Apr 19 04:30 PM
EXFYMcLaughlin Steven J.10% OwnerApr 18Buy1.598,48113,4858,998,125Apr 19 04:15 PM
EXFYMcLaughlin Steven J.10% OwnerApr 17Buy1.50135,158202,7378,989,644Apr 19 04:15 PM
SUNSkidmore David KDirectorApr 17Buy52.101,50078,14414,608Apr 19 04:10 PM
FEIMSarachek Russell MDirectorApr 15Buy9.776586,429433,745Apr 19 03:03 PM
TPLHORIZON KINETICS ASSET MANAGEM10% OwnerApr 18Buy582.4031,7471,084,941Apr 19 01:04 PM
RCGSTAHL MURRAYPresident and CEOApr 18Buy1.685592247,402Apr 19 11:09 AM
RCGSTAHL MURRAYPresident and CEOApr 18Buy1.68235,005Apr 19 11:09 AM
CETHill John CCEO and PresidentApr 18Buy40.392008,078416Apr 19 10:20 AM
CETHill John CCEO and PresidentApr 18Buy40.432008,08668,247Apr 19 10:20 AM
CDZIKennedy Susan PCEOApr 18Buy2.2525,00056,250966,921Apr 19 09:47 AM
CLSDGibney Anthony SDirectorApr 18Buy1.3093,290121,277100,000Apr 19 09:45 AM
CLSDGibney Anthony SDirectorApr 17Buy1.256,7108,3886,710Apr 19 09:45 AM
UNOVSaumat Giorgio R.CEOApr 18Buy0.0739,0002,652119,791,407Apr 19 09:25 AM
UNOVSaumat Giorgio R.CEOApr 17Buy0.0750,0003,307119,752,407Apr 19 09:25 AM
FINSPalsson JohannesPortfolio ManagerApr 18Buy12.395,67070,25146,403Apr 19 09:01 AM
FNLCSwan KimberlyDirectorApr 18Buy22.311,27528,4459,837Apr 19 08:05 AM
ASGIGoodson Alan RDirector of AdviserApr 18Buy16.833,88165,3173,881Apr 19 07:41 AM
IHTWIRTH JAMES FPresident & CEOApr 16Buy308.9920061,7986,250,696Apr 19 06:16 AM
LOVEHEYER ANDREW RDirectorApr 17Buy20.238,144164,75537,282Apr 18 08:51 PM
LOVEHEYER ANDREW RDirectorApr 17Buy20.236,226125,952241,518Apr 18 08:51 PM
LOVEHEYER ANDREW RDirectorApr 16Buy18.763,85672,3303,856Apr 18 08:51 PM
LOVEHEYER ANDREW RDirectorApr 16Buy18.743,77470,709235,292Apr 18 08:51 PM
SNDARibar BrandonPresident & CEOApr 17Buy28.723,00086,160308,055Apr 18 05:32 PM
BEEPChavez Manuel IIICEOApr 17Buy3.4516,86158,17018,081Apr 18 05:03 PM
AXRDAHL JAMES H10% OwnerApr 18Buy21.822,40052,359361,207Apr 18 04:52 PM
AXRDAHL JAMES H10% OwnerApr 16Buy20.981422,979358,807Apr 18 04:52 PM
ULSPEPPING KAREN KSenior VP & CAOApr 16Buy28.003,57199,9883,571Apr 18 04:35 PM
ULSShannon James MDirectorApr 16Buy28.007,142199,9767,142Apr 18 04:34 PM
ULSTorstad ElizabethDirectorApr 16Buy28.003,57199,9883,571Apr 18 04:34 PM
ULSChapin Linda SEVP & CHROApr 16Buy28.001,78549,9801,785Apr 18 04:34 PM
ULSHecker FriedrichDirectorApr 16Buy28.0010,714299,99210,714Apr 18 04:34 PM
ULSWILLIAMS GEORGE ADirectorApr 16Buy28.008,928249,9848,928Apr 18 04:34 PM
ULSKENNEDY KEVINDirectorApr 16Buy28.0035,714999,99235,714Apr 18 04:33 PM
ULSGOTTSCHALK MARLA CDirectorApr 16Buy28.0071,4281,999,98471,428Apr 18 04:33 PM
ULSDOLLIVE JAMES PDirectorApr 16Buy28.0071,4281,999,98471,428Apr 18 04:33 PM
ULSTHAMAN MICHAEL HDirectorApr 16Buy28.008,928249,9848,928Apr 18 04:33 PM
ULSLambert Lisa MarieDirectorApr 16Buy28.0089224,976892Apr 18 04:32 PM
ULSRobinson Ryan DExecutive VP & CFOApr 16Buy28.0071,4281,999,98471,428Apr 18 04:32 PM
ULSCoyne Frank JDirectorApr 16Buy28.00107,1422,999,976107,142Apr 18 04:32 PM
ULSZhou WeifangSee RemarksApr 16Buy28.0026,786750,00826,786Apr 18 04:32 PM
ULSSUSMAN SALLYDirectorApr 16Buy28.003,57199,9883,571Apr 18 04:32 PM
ULSMcLaughlin Jacqueline KEVP & CLOApr 16Buy28.0017,857499,99617,857Apr 18 04:31 PM
ULSHancock Lynn HSee RemarksApr 16Buy28.005,000140,0005,000Apr 18 04:31 PM
ULSUggetti AlbertoEVP & CCOApr 16Buy28.009,285259,9809,285Apr 18 04:31 PM
ULSHooper Charles WDirectorApr 16Buy28.003579,996357Apr 18 04:31 PM
ULSSchjotz GitteSee RemarksApr 16Buy28.0017,857499,99617,857Apr 18 04:30 PM
ULSGenovesi John ASee RemarksApr 16Buy28.0018,000504,00018,000Apr 18 04:30 PM
ULSScanlon Jennifer F.President and CEOApr 16Buy28.0089,2852,499,98089,285Apr 18 04:30 PM
PSTLSpodek AndrewCEO and DirectorApr 18Buy13.501,11014,985247,518Apr 18 04:30 PM
PSTLSpodek AndrewCEO and DirectorApr 17Buy13.501812,444246,408Apr 18 04:30 PM
PSTLSpodek AndrewCEO and DirectorApr 16Buy13.508,709117,572246,227Apr 18 04:30 PM
EAFColonial House Capital Ltd10% OwnerApr 16Buy1.782,303,5994,100,86729,535,575Apr 18 04:08 PM
FASTJohnson Daniel L.DirectorApr 17Buy68.383,350229,05610,595Apr 18 03:54 PM
VUZITravers Paul JPresident and CEOApr 18Buy1.347,50010,0622,845,170Apr 18 01:50 PM
RVPSHAW THOMAS JPRESIDENT AND CEOApr 17Buy1.0315,36315,80114,352,831Apr 18 01:48 PM
QCRHZiegler Marie Z.DirectorApr 18Buy55.541186,55330,793Apr 18 01:33 PM
MPASaba Capital Management, L.P.10% OwnerApr 17Buy12.145,33364,7432,218,894Apr 18 12:59 PM
MPASaba Capital Management, L.P.10% OwnerApr 16Buy12.0332,876395,4982,213,561Apr 18 12:59 PM
GABCSEGER THOMAS WDirectorApr 15Buy32.0627850478,764Apr 18 12:12 PM
GABCSHEIDLER JACKDirectorApr 15Buy32.062890061,295Apr 18 11:58 AM
CHCOHYLTON TRACY W IIDirectorApr 16Buy97.7318918,47159,834Apr 18 11:42 AM
CHCOSTRONG-TREISTER DIANE WDirectorApr 16Buy97.7313613,2912,499Apr 18 11:42 AM
CHCOFISHER ROBERT DDirectorApr 16Buy97.7321921,40343,497Apr 18 11:42 AM
CHCOBurton Gregory ADirectorApr 16Buy97.7314614,2691,736Apr 18 11:41 AM
CHCOFILE W H IIIDirectorApr 16Buy97.7316716,32126,172Apr 18 11:41 AM
RCGSTAHL MURRAYPresident and CEOApr 17Buy1.685592247,378Apr 18 10:59 AM
RCGSTAHL MURRAYPresident and CEOApr 17Buy1.68235,003Apr 18 10:59 AM
TPLHORIZON KINETICS ASSET MANAGEM10% OwnerApr 17Buy584.9631,7551,084,938Apr 18 10:55 AM
RELLPLANTE PAUL JDirectorApr 17Buy9.965,00049,8005,000Apr 18 09:07 AM
RELLBenham JamesDirectorApr 16Buy10.012,50025,0315,000Apr 18 09:03 AM
GYROTOWERVIEW LLC10% OwnerApr 16Buy7.842,43419,083344,730Apr 18 08:54 AM
IZEAGP Investments, Ltd.10% OwnerApr 17Buy2.505161,2901,726,902Apr 17 07:29 PM
IZEAGP Investments, Ltd.10% OwnerApr 16Buy2.506,62016,5501,726,386Apr 17 07:29 PM
RKTRizik MatthewDirectorApr 17Buy11.443834,382696,753Apr 17 06:14 PM
RKTRizik MatthewDirectorApr 16Buy11.463754,298696,370Apr 17 06:14 PM
RKTRizik MatthewDirectorApr 15Buy12.213584,371695,995Apr 17 06:14 PM
STCNSTEEL PARTNERS HOLDINGS L.P.DirectorApr 12Buy9.35656111,851Apr 17 06:11 PM
STCNSTEEL PARTNERS HOLDINGS L.P.DirectorApr 11Buy9.4423,698223,775111,845Apr 17 06:11 PM
STCNSTEEL PARTNERS HOLDINGS L.P.DirectorApr 10Buy8.9318,605166,16988,147Apr 17 06:11 PM
SPLPSTEEL PARTNERS HOLDINGS L.P.DirectorApr 12Buy9.35656111,851Apr 17 06:11 PM
SPLPSTEEL PARTNERS HOLDINGS L.P.DirectorApr 11Buy9.4423,698223,775111,845Apr 17 06:11 PM
SPLPSTEEL PARTNERS HOLDINGS L.P.DirectorApr 10Buy8.9318,605166,16988,147Apr 17 06:11 PM
CTRNFund 1 Investments, LLC10% OwnerApr 17Buy22.4118,090405,3591,798,872Apr 17 05:48 PM
CTRNFund 1 Investments, LLC10% OwnerApr 16Buy22.5812,000271,0131,780,782Apr 17 05:48 PM
CTRNFund 1 Investments, LLC10% OwnerApr 15Buy22.415,136115,0821,768,782Apr 17 05:48 PM
PETVLai JohnCEO and PresidentApr 15Buy0.60150,00090,0001,288,592Apr 17 05:28 PM
TTSHFund 1 Investments, LLC10% OwnerApr 17Buy6.6637,000246,5585,921,308Apr 17 05:14 PM
TTSHFund 1 Investments, LLC10% OwnerApr 16Buy6.7030,500204,3445,884,308Apr 17 05:14 PM
TTSHFund 1 Investments, LLC10% OwnerApr 15Buy6.8211,70079,8475,853,808Apr 17 05:14 PM
TPLHORIZON KINETICS ASSET MANAGEM10% OwnerApr 16Buy586.9331,7611,084,935Apr 17 04:55 PM
FISGoldstein Jeffrey ADirectorApr 15Buy72.3777556,0879,052Apr 17 04:54 PM
BRNSHERWOOD NED L10% OwnerApr 17Buy2.7810,65029,6072,617,827Apr 17 04:52 PM
BRNSHERWOOD NED L10% OwnerApr 16Buy2.746,71118,3882,607,177Apr 17 04:52 PM
BRNSHERWOOD NED L10% OwnerApr 15Buy2.6771,050189,7042,600,466Apr 17 04:52 PM
EXFYMcLaughlin Steven J.10% OwnerApr 16Buy1.4676,079111,0758,854,486Apr 17 04:31 PM
EXFYMcLaughlin Steven J.10% OwnerApr 15Buy1.43248,712355,6588,778,407Apr 17 04:31 PM
WDFCBrass Steven APresident and CEOApr 16Buy232.22432100,31920,547Apr 17 04:24 PM
BRTGOULD INVESTORS L P10% OwnerApr 17Buy16.8912,850217,0153,707,981Apr 17 04:20 PM
BRTGOULD INVESTORS L P10% OwnerApr 16Buy16.9512,850217,8553,695,131Apr 17 04:20 PM
BRTGOULD INVESTORS L P10% OwnerApr 15Buy17.0011,212190,6003,682,281Apr 17 04:20 PM
BRTGOULD JEFFREYPRESIDENT AND CEOApr 17Buy16.8912,850217,0153,707,981Apr 17 04:20 PM
BRTGOULD JEFFREYPRESIDENT AND CEOApr 16Buy16.9512,850217,8553,695,131Apr 17 04:20 PM
BRTGOULD JEFFREYPRESIDENT AND CEOApr 15Buy17.0011,212190,6003,682,281Apr 17 04:20 PM
BRTGOULD MATTHEW JSENIOR VICE PRESIDENTApr 17Buy16.8912,850217,0153,707,981Apr 17 04:20 PM
BRTGOULD MATTHEW JSENIOR VICE PRESIDENTApr 16Buy16.9512,850217,8553,695,131Apr 17 04:20 PM
BRTGOULD MATTHEW JSENIOR VICE PRESIDENTApr 15Buy17.0011,212190,6003,682,281Apr 17 04:20 PM
RXOMFN Partners, LP10% OwnerApr 16Buy20.2235,985727,61715,629,679Apr 17 04:14 PM
RXOMFN Partners, LP10% OwnerApr 12Buy20.395,139104,78415,593,694Apr 17 04:14 PM
AHHWimbush Frederick BlairDirectorApr 04Buy10.46899354,653Apr 17 04:12 PM
BCOVEdenbrook Capital, LLC10% OwnerApr 16Buy1.6946,83179,1076,512,633Apr 17 04:10 PM
BCOVEdenbrook Capital, LLC10% OwnerApr 15Buy1.6810,00016,7506,465,802Apr 17 04:10 PM
BEEPChavez Manuel IIICEOApr 16Buy3.491,2204,2581,220Apr 17 04:05 PM
USAUNORMAN LUKE ANTHONYDirectorApr 15Buy4.195,00020,950348,980Apr 17 02:33 PM
YORWSnyder Mark SVP-EngineeringApr 16Buy34.8093293,576Apr 17 01:49 PM
YORWPoff Matthew EChief Financial OfficerApr 16Buy34.3841305,640Apr 17 01:40 PM
YORWHand Joseph ThomasCEO & PresidentApr 16Buy34.802849,87130,515Apr 17 01:33 PM
YORWChiaruttini Alexandra CCAO & General CounselApr 16Buy34.38381,3002,410Apr 17 01:24 PM
YORWBRACEY VERNON LVP- Human ResourcesApr 16Buy34.81269211,875Apr 17 01:14 PM
NEOGJones Douglas EdwardChief Operating OfficerApr 17Buy12.3610,000123,59046,131Apr 17 12:04 PM
RCGSTAHL MURRAYPresident and CEOApr 16Buy1.705594247,354Apr 17 10:32 AM
RCGSTAHL MURRAYPresident and CEOApr 16Buy1.70235,001Apr 17 10:32 AM
AINCBennett Monty JCEO and Chairman of the BoardApr 15Buy4.91200,000982,000467,504Apr 16 04:27 PM
KFSFitzgerald John Taylor MaloneyPresident and CEOApr 15Buy8.442962,4981,565,410Apr 16 04:24 PM
KFSHansen Kent ACFO & EVPApr 15Buy8.441851,561124,406Apr 16 04:22 PM
RVPSHAW THOMAS JPRESIDENT AND CEOApr 15Buy1.063,5873,80214,337,468Apr 16 12:51 PM
TPLSTAHL MURRAYDirectorApr 15Buy583.9195,255591,873Apr 16 11:35 AM
TPLSTAHL MURRAYDirectorApr 15Buy583.9131,7527,650Apr 16 11:35 AM
RCGSTAHL MURRAYPresident and CEOApr 15Buy1.655591247,330Apr 16 11:31 AM
RCGSTAHL MURRAYPresident and CEOApr 15Buy1.65234,999Apr 16 11:31 AM
AESFalu Ricardo ManuelEVP, COO, Pres. New Enrgy TechMar 12Buy16.0169684,785Apr 15 07:50 PM
AESFalu Ricardo ManuelEVP, COO, Pres. New Enrgy TechDec 28Buy19.21731,40284,779Apr 15 07:50 PM
AESFalu Ricardo ManuelEVP, COO, Pres. New Enrgy TechNov 21Buy16.893025,10184,706Apr 15 07:50 PM
OCXBROADWOOD PARTNERS, L.P.10% OwnerApr 11Buy2.922,420,0007,057,6884,929,066Apr 15 07:21 PM
WBABhandari Inderpal SDirectorApr 11Buy18.053,00054,1503,000Apr 15 05:45 PM
AGMDobrinski Everett MDirectorDec 29Buy193.43346,4937,300Apr 15 05:36 PM
AGMDobrinski Everett MDirectorSep 29Buy158.32416,4497,266Apr 15 05:36 PM
AGMDobrinski Everett MDirectorJun 30Buy143.31456,4007,225Apr 15 05:36 PM
AGMDobrinski Everett MDirectorMar 31Buy131.97435,7127,181Apr 15 05:36 PM
AGMDobrinski Everett MDirectorDec 30Buy113.03434,8927,138Apr 15 05:36 PM
AGMDobrinski Everett MDirectorSep 30Buy99.62494,8467,094Apr 15 05:36 PM
AGMDobrinski Everett MDirectorJun 30Buy95.94504,7987,046Apr 15 05:36 PM
AGMDobrinski Everett MDirectorMar 31Buy110.38283,1406,996Apr 15 05:36 PM
AGMDobrinski Everett MDirectorDec 31Buy124.00232,8886,967Apr 15 05:36 PM
AGMDobrinski Everett MDirectorSep 30Buy110.81262,8656,944Apr 15 05:36 PM
AGMDobrinski Everett MDirectorJun 30Buy97.35292,8406,918Apr 15 05:36 PM
AGMDobrinski Everett MDirectorMar 31Buy101.62212,1806,889Apr 15 05:36 PM
AGMDobrinski Everett MDirectorDec 31Buy74.22261,9616,867Apr 15 05:36 PM
AGMDobrinski Everett MDirectorSep 30Buy64.19301,9376,841Apr 15 05:36 PM
AGMDobrinski Everett MDirectorJun 30Buy62.07311,9126,811Apr 15 05:36 PM
VPVSaba Capital Management, L.P.10% OwnerApr 15Buy9.942,97329,5522,842,701Apr 15 05:15 PM
open in screener